sensor_id;sensor_type;location;lat;lon;timestamp;temperature;humidity
25188;DHT22;13141;50.414;8.050;2022-12-07T00:00:28;4.50;99.90
25188;DHT22;13141;50.414;8.050;2022-12-07T00:02:54;4.40;99.90
25188;DHT22;13141;50.414;8.050;2022-12-07T00:05:19;4.50;99.90
25188;DHT22;13141;50.414;8.050;2022-12-07T00:07:45;4.60;99.90
25188;DHT22;13141;50.414;8.050;2022-12-07T00:10:10;4.70;99.90
25188;DHT22;13141;50.414;8.050;2022-12-07T00:12:36;4.50;99.90
25188;DHT22;13141;50.414;8.050;2022-12-07T00:15:01;4.50;99.90
25188;DHT22;13141;50.414;8.050;2022-12-07T00:17:27;4.50;99.90
25188;DHT22;13141;50.414;8.050;2022-12-07T00:19:52;4.70;99.90
25188;DHT22;13141;50.414;8.050;2022-12-07T00:22:18;4.60;99.90
25188;DHT22;13141;50.414;8.050;2022-12-07T00:24:43;4.70;99.90
25188;DHT22;13141;50.414;8.050;2022-12-07T00:27:09;4.80;99.90
25188;DHT22;13141;50.414;8.050;2022-12-07T00:29:34;4.80;99.90
25188;DHT22;13141;50.414;8.050;2022-12-07T00:32:00;5.00;99.90
25188;DHT22;13141;50.414;8.050;2022-12-07T00:34:25;5.10;99.90
25188;DHT22;13141;50.414;8.050;2022-12-07T00:36:51;4.70;99.90
25188;DHT22;13141;50.414;8.050;2022-12-07T00:39:16;4.60;99.90
25188;DHT22;13141;50.414;8.050;2022-12-07T00:41:42;4.60;99.90
25188;DHT22;13141;50.414;8.050;2022-12-07T00:44:08;4.60;99.90
25188;DHT22;13141;50.414;8.050;2022-12-07T00:46:34;4.70;99.90
25188;DHT22;13141;50.414;8.050;2022-12-07T00:49:00;4.80;99.90
25188;DHT22;13141;50.414;8.050;2022-12-07T00:51:25;4.60;99.90
25188;DHT22;13141;50.414;8.050;2022-12-07T00:53:52;4.60;99.90
25188;DHT22;13141;50.414;8.050;2022-12-07T00:56:23;4.50;99.90
25188;DHT22;13141;50.414;8.050;2022-12-07T00:58:57;4.50;99.90
25188;DHT22;13141;50.414;8.050;2022-12-07T01:01:24;4.50;99.90
25188;DHT22;13141;50.414;8.050;2022-12-07T01:03:50;4.50;99.90
25188;DHT22;13141;50.414;8.050;2022-12-07T01:06:17;4.50;99.90
25188;DHT22;13141;50.414;8.050;2022-12-07T01:08:44;4.50;99.90
25188;DHT22;13141;50.414;8.050;2022-12-07T01:11:14;4.40;99.90
25188;DHT22;13141;50.414;8.050;2022-12-07T01:13:40;4.40;99.90
25188;DHT22;13141;50.414;8.050;2022-12-07T01:16:07;4.40;99.90
25188;DHT22;13141;50.414;8.050;2022-12-07T01:18:35;4.40;99.90
25188;DHT22;13141;50.414;8.050;2022-12-07T01:21:09;4.40;99.90
25188;DHT22;13141;50.414;8.050;2022-12-07T01:23:36;4.30;99.90
25188;DHT22;13141;50.414;8.050;2022-12-07T01:26:04;4.30;99.90
25188;DHT22;13141;50.414;8.050;2022-12-07T01:28:31;4.30;99.90
25188;DHT22;13141;50.414;8.050;2022-12-07T01:31:21;4.40;99.90
25188;DHT22;13141;50.414;8.050;2022-12-07T01:33:52;4.30;99.90
25188;DHT22;13141;50.414;8.050;2022-12-07T01:36:22;4.40;99.90
25188;DHT22;13141;50.414;8.050;2022-12-07T01:38:50;4.40;99.90
25188;DHT22;13141;50.414;8.050;2022-12-07T01:41:19;4.30;99.90
25188;DHT22;13141;50.414;8.050;2022-12-07T01:46:37;4.40;99.90
25188;DHT22;13141;50.414;8.050;2022-12-07T01:49:05;4.40;99.90
25188;DHT22;13141;50.414;8.050;2022-12-07T01:51:31;4.40;99.90
25188;DHT22;13141;50.414;8.050;2022-12-07T01:53:57;4.40;99.90
25188;DHT22;13141;50.414;8.050;2022-12-07T01:56:26;4.30;99.90
25188;DHT22;13141;50.414;8.050;2022-12-07T01:58:53;4.40;99.90
25188;DHT22;13141;50.414;8.050;2022-12-07T02:01:19;4.50;99.90
25188;DHT22;13141;50.414;8.050;2022-12-07T02:03:45;4.50;99.90
25188;DHT22;13141;50.414;8.050;2022-12-07T02:06:15;4.50;99.90
25188;DHT22;13141;50.414;8.050;2022-12-07T02:08:42;4.60;99.90
25188;DHT22;13141;50.414;8.050;2022-12-07T02:11:09;4.60;99.90
25188;DHT22;13141;50.414;8.050;2022-12-07T02:13:38;4.60;99.90
25188;DHT22;13141;50.414;8.050;2022-12-07T02:16:16;4.60;99.90
25188;DHT22;13141;50.414;8.050;2022-12-07T02:19:10;4.60;99.90
25188;DHT22;13141;50.414;8.050;2022-12-07T02:30:15;4.40;99.90
25188;DHT22;13141;50.414;8.050;2022-12-07T02:36:15;4.40;99.90
25188;DHT22;13141;50.414;8.050;2022-12-07T02:38:18;4.30;99.90
25188;DHT22;13141;50.414;8.050;2022-12-07T02:40:51;4.40;99.90
25188;DHT22;13141;50.414;8.050;2022-12-07T02:43:35;4.30;99.90
25188;DHT22;13141;50.414;8.050;2022-12-07T02:46:08;4.30;99.90
25188;DHT22;13141;50.414;8.050;2022-12-07T02:48:36;4.30;99.90
25188;DHT22;13141;50.414;8.050;2022-12-07T02:51:02;4.30;99.90
25188;DHT22;13141;50.414;8.050;2022-12-07T02:53:35;4.30;99.90
25188;DHT22;13141;50.414;8.050;2022-12-07T02:56:30;4.00;99.90
25188;DHT22;13141;50.414;8.050;2022-12-07T03:04:55;4.40;99.90
25188;DHT22;13141;50.414;8.050;2022-12-07T03:10:08;4.30;99.90
25188;DHT22;13141;50.414;8.050;2022-12-07T03:12:48;4.40;99.90
25188;DHT22;13141;50.414;8.050;2022-12-07T03:15:36;4.40;99.90
25188;DHT22;13141;50.414;8.050;2022-12-07T03:18:05;4.30;99.90
25188;DHT22;13141;50.414;8.050;2022-12-07T03:20:34;4.30;99.90
25188;DHT22;13141;50.414;8.050;2022-12-07T03:23:04;4.40;99.90
25188;DHT22;13141;50.414;8.050;2022-12-07T03:25:32;4.40;99.90
25188;DHT22;13141;50.414;8.050;2022-12-07T03:28:03;4.40;99.90
25188;DHT22;13141;50.414;8.050;2022-12-07T03:30:34;4.40;99.90
25188;DHT22;13141;50.414;8.050;2022-12-07T03:33:07;4.50;99.90
25188;DHT22;13141;50.414;8.050;2022-12-07T03:35:45;4.40;99.90
25188;DHT22;13141;50.414;8.050;2022-12-07T03:38:24;4.40;99.90
25188;DHT22;13141;50.414;8.050;2022-12-07T03:41:01;4.50;99.90
25188;DHT22;13141;50.414;8.050;2022-12-07T03:43:30;4.50;99.90
25188;DHT22;13141;50.414;8.050;2022-12-07T03:49:11;4.50;99.90
25188;DHT22;13141;50.414;8.050;2022-12-07T03:52:22;4.50;99.90
25188;DHT22;13141;50.414;8.050;2022-12-07T03:55:28;4.50;99.90
25188;DHT22;13141;50.414;8.050;2022-12-07T03:57:58;4.60;99.90
25188;DHT22;13141;50.414;8.050;2022-12-07T04:00:25;4.60;99.90
25188;DHT22;13141;50.414;8.050;2022-12-07T04:02:52;4.60;99.90
25188;DHT22;13141;50.414;8.050;2022-12-07T04:05:17;5.00;99.90
25188;DHT22;13141;50.414;8.050;2022-12-07T04:07:43;4.70;99.90
25188;DHT22;13141;50.414;8.050;2022-12-07T04:10:09;4.60;99.90
25188;DHT22;13141;50.414;8.050;2022-12-07T04:12:35;4.60;99.90
25188;DHT22;13141;50.414;8.050;2022-12-07T04:15:00;4.50;99.90
25188;DHT22;13141;50.414;8.050;2022-12-07T04:17:26;4.50;99.90
25188;DHT22;13141;50.414;8.050;2022-12-07T04:19:51;4.50;99.90
25188;DHT22;13141;50.414;8.050;2022-12-07T04:22:17;4.50;99.90
25188;DHT22;13141;50.414;8.050;2022-12-07T04:24:42;4.50;99.90
25188;DHT22;13141;50.414;8.050;2022-12-07T04:27:07;4.50;99.90
25188;DHT22;13141;50.414;8.050;2022-12-07T04:29:33;4.60;99.90
25188;DHT22;13141;50.414;8.050;2022-12-07T04:31:58;4.70;99.90
25188;DHT22;13141;50.414;8.050;2022-12-07T04:34:24;4.50;99.90
25188;DHT22;13141;50.414;8.050;2022-12-07T04:36:50;4.60;99.90
25188;DHT22;13141;50.414;8.050;2022-12-07T04:39:25;4.50;99.90
25188;DHT22;13141;50.414;8.050;2022-12-07T04:41:51;4.50;99.90
25188;DHT22;13141;50.414;8.050;2022-12-07T04:44:17;4.50;99.90
25188;DHT22;13141;50.414;8.050;2022-12-07T04:46:44;4.50;99.90
25188;DHT22;13141;50.414;8.050;2022-12-07T04:49:10;4.50;99.90
25188;DHT22;13141;50.414;8.050;2022-12-07T04:51:36;4.50;99.90
25188;DHT22;13141;50.414;8.050;2022-12-07T04:54:02;4.50;99.90
25188;DHT22;13141;50.414;8.050;2022-12-07T04:56:28;4.40;99.90
25188;DHT22;13141;50.414;8.050;2022-12-07T04:58:54;4.50;99.90
25188;DHT22;13141;50.414;8.050;2022-12-07T05:01:21;4.50;99.90
25188;DHT22;13141;50.414;8.050;2022-12-07T05:03:47;4.50;99.90
25188;DHT22;13141;50.414;8.050;2022-12-07T05:06:13;4.50;99.90
25188;DHT22;13141;50.414;8.050;2022-12-07T05:08:39;4.50;99.90
25188;DHT22;13141;50.414;8.050;2022-12-07T05:11:06;4.50;99.90
25188;DHT22;13141;50.414;8.050;2022-12-07T05:13:32;4.50;99.90
25188;DHT22;13141;50.414;8.050;2022-12-07T05:15:58;4.60;99.90
25188;DHT22;13141;50.414;8.050;2022-12-07T05:18:24;4.70;99.90
25188;DHT22;13141;50.414;8.050;2022-12-07T05:20:50;4.70;99.90
25188;DHT22;13141;50.414;8.050;2022-12-07T05:23:16;4.80;99.90
25188;DHT22;13141;50.414;8.050;2022-12-07T05:25:42;4.70;99.90
25188;DHT22;13141;50.414;8.050;2022-12-07T05:28:07;4.70;99.90
25188;DHT22;13141;50.414;8.050;2022-12-07T05:30:33;4.80;99.90
25188;DHT22;13141;50.414;8.050;2022-12-07T05:32:58;4.80;99.90
25188;DHT22;13141;50.414;8.050;2022-12-07T05:35:24;4.80;99.90
25188;DHT22;13141;50.414;8.050;2022-12-07T05:37:49;4.80;99.90
25188;DHT22;13141;50.414;8.050;2022-12-07T05:40:15;4.80;99.90
25188;DHT22;13141;50.414;8.050;2022-12-07T05:42:41;4.80;99.90
25188;DHT22;13141;50.414;8.050;2022-12-07T05:45:08;4.80;99.90
25188;DHT22;13141;50.414;8.050;2022-12-07T05:47:34;4.90;99.90
25188;DHT22;13141;50.414;8.050;2022-12-07T05:50:00;4.40;99.90
25188;DHT22;13141;50.414;8.050;2022-12-07T05:52:26;4.80;99.90
25188;DHT22;13141;50.414;8.050;2022-12-07T05:54:52;4.80;99.90
25188;DHT22;13141;50.414;8.050;2022-12-07T05:57:18;4.80;99.90
25188;DHT22;13141;50.414;8.050;2022-12-07T05:59:43;4.80;99.90
25188;DHT22;13141;50.414;8.050;2022-12-07T06:02:12;4.80;99.90
25188;DHT22;13141;50.414;8.050;2022-12-07T06:04:40;5.00;99.90
25188;DHT22;13141;50.414;8.050;2022-12-07T06:07:07;4.90;99.90
25188;DHT22;13141;50.414;8.050;2022-12-07T06:09:32;4.80;99.90
25188;DHT22;13141;50.414;8.050;2022-12-07T06:11:58;4.80;99.90
25188;DHT22;13141;50.414;8.050;2022-12-07T06:14:43;4.80;99.90
25188;DHT22;13141;50.414;8.050;2022-12-07T06:17:10;4.80;99.90
25188;DHT22;13141;50.414;8.050;2022-12-07T06:19:35;4.80;99.90
25188;DHT22;13141;50.414;8.050;2022-12-07T06:22:01;4.80;99.90
25188;DHT22;13141;50.414;8.050;2022-12-07T06:24:28;4.80;99.90
25188;DHT22;13141;50.414;8.050;2022-12-07T06:26:53;4.80;99.90
25188;DHT22;13141;50.414;8.050;2022-12-07T06:29:19;4.80;99.90
25188;DHT22;13141;50.414;8.050;2022-12-07T06:31:44;4.70;99.90
25188;DHT22;13141;50.414;8.050;2022-12-07T06:34:13;4.70;99.90
25188;DHT22;13141;50.414;8.050;2022-12-07T06:36:39;4.70;99.90
25188;DHT22;13141;50.414;8.050;2022-12-07T06:39:05;4.80;99.90
25188;DHT22;13141;50.414;8.050;2022-12-07T06:41:31;4.80;99.90
25188;DHT22;13141;50.414;8.050;2022-12-07T06:43:56;4.90;99.90
25188;DHT22;13141;50.414;8.050;2022-12-07T06:46:23;5.00;99.90
25188;DHT22;13141;50.414;8.050;2022-12-07T06:48:48;5.00;99.90
25188;DHT22;13141;50.414;8.050;2022-12-07T06:51:14;5.00;99.90
25188;DHT22;13141;50.414;8.050;2022-12-07T06:53:40;5.00;99.90
25188;DHT22;13141;50.414;8.050;2022-12-07T06:56:06;5.10;99.90
25188;DHT22;13141;50.414;8.050;2022-12-07T06:58:31;5.10;99.90
25188;DHT22;13141;50.414;8.050;2022-12-07T07:00:57;5.20;99.90
25188;DHT22;13141;50.414;8.050;2022-12-07T07:03:22;5.20;99.90
25188;DHT22;13141;50.414;8.050;2022-12-07T07:05:48;5.20;99.90
25188;DHT22;13141;50.414;8.050;2022-12-07T07:08:14;5.50;99.90
25188;DHT22;13141;50.414;8.050;2022-12-07T07:10:40;5.20;99.90
25188;DHT22;13141;50.414;8.050;2022-12-07T07:13:06;5.20;99.90
25188;DHT22;13141;50.414;8.050;2022-12-07T07:15:32;5.20;99.90
25188;DHT22;13141;50.414;8.050;2022-12-07T07:17:58;5.20;99.90
25188;DHT22;13141;50.414;8.050;2022-12-07T07:20:24;5.30;99.90
25188;DHT22;13141;50.414;8.050;2022-12-07T07:22:49;5.20;99.90
25188;DHT22;13141;50.414;8.050;2022-12-07T07:25:15;5.30;99.90
25188;DHT22;13141;50.414;8.050;2022-12-07T07:27:41;5.30;99.90
25188;DHT22;13141;50.414;8.050;2022-12-07T07:30:08;5.30;99.90
25188;DHT22;13141;50.414;8.050;2022-12-07T07:32:34;5.20;99.90
25188;DHT22;13141;50.414;8.050;2022-12-07T07:34:59;5.20;99.90
25188;DHT22;13141;50.414;8.050;2022-12-07T07:37:25;5.10;99.90
25188;DHT22;13141;50.414;8.050;2022-12-07T07:39:51;5.20;99.90
25188;DHT22;13141;50.414;8.050;2022-12-07T07:42:17;5.10;99.90
25188;DHT22;13141;50.414;8.050;2022-12-07T07:44:42;5.10;99.90
25188;DHT22;13141;50.414;8.050;2022-12-07T07:47:08;5.00;99.90
25188;DHT22;13141;50.414;8.050;2022-12-07T07:49:33;5.00;99.90
25188;DHT22;13141;50.414;8.050;2022-12-07T07:51:59;5.00;99.90
25188;DHT22;13141;50.414;8.050;2022-12-07T07:54:24;5.00;99.90
25188;DHT22;13141;50.414;8.050;2022-12-07T07:56:50;5.10;99.90
25188;DHT22;13141;50.414;8.050;2022-12-07T07:59:15;5.20;99.90
25188;DHT22;13141;50.414;8.050;2022-12-07T08:01:41;5.20;99.90
25188;DHT22;13141;50.414;8.050;2022-12-07T08:04:07;5.20;99.90
25188;DHT22;13141;50.414;8.050;2022-12-07T08:06:32;5.10;99.90
25188;DHT22;13141;50.414;8.050;2022-12-07T08:08:58;5.20;99.90
25188;DHT22;13141;50.414;8.050;2022-12-07T08:11:24;5.20;99.90
25188;DHT22;13141;50.414;8.050;2022-12-07T08:13:49;5.20;99.90
25188;DHT22;13141;50.414;8.050;2022-12-07T08:16:15;5.30;99.90
25188;DHT22;13141;50.414;8.050;2022-12-07T08:18:41;5.30;99.90
25188;DHT22;13141;50.414;8.050;2022-12-07T08:21:11;5.30;99.90
25188;DHT22;13141;50.414;8.050;2022-12-07T08:23:36;5.30;99.90
25188;DHT22;13141;50.414;8.050;2022-12-07T08:26:07;5.30;99.90
25188;DHT22;13141;50.414;8.050;2022-12-07T08:28:33;5.30;99.90
25188;DHT22;13141;50.414;8.050;2022-12-07T08:31:11;5.30;99.90
25188;DHT22;13141;50.414;8.050;2022-12-07T08:33:37;5.30;99.90
25188;DHT22;13141;50.414;8.050;2022-12-07T08:36:09;5.20;99.90
25188;DHT22;13141;50.414;8.050;2022-12-07T08:38:35;5.20;99.90
25188;DHT22;13141;50.414;8.050;2022-12-07T08:41:01;5.20;99.90
25188;DHT22;13141;50.414;8.050;2022-12-07T08:43:27;5.30;99.90
25188;DHT22;13141;50.414;8.050;2022-12-07T08:46:09;5.30;99.90
25188;DHT22;13141;50.414;8.050;2022-12-07T08:48:41;5.30;99.90
25188;DHT22;13141;50.414;8.050;2022-12-07T08:51:08;5.30;99.90
25188;DHT22;13141;50.414;8.050;2022-12-07T08:53:35;5.30;99.90
25188;DHT22;13141;50.414;8.050;2022-12-07T08:56:02;5.30;99.90
25188;DHT22;13141;50.414;8.050;2022-12-07T08:58:28;5.50;99.90
25188;DHT22;13141;50.414;8.050;2022-12-07T09:00:54;5.50;99.90
25188;DHT22;13141;50.414;8.050;2022-12-07T09:03:20;5.70;99.90
25188;DHT22;13141;50.414;8.050;2022-12-07T09:05:45;5.70;99.90
25188;DHT22;13141;50.414;8.050;2022-12-07T09:08:11;5.80;99.90
25188;DHT22;13141;50.414;8.050;2022-12-07T09:10:36;5.90;99.90
25188;DHT22;13141;50.414;8.050;2022-12-07T09:13:02;5.90;99.90
25188;DHT22;13141;50.414;8.050;2022-12-07T09:15:28;5.90;99.90
25188;DHT22;13141;50.414;8.050;2022-12-07T09:17:54;5.90;99.90
25188;DHT22;13141;50.414;8.050;2022-12-07T09:20:20;5.90;99.90
25188;DHT22;13141;50.414;8.050;2022-12-07T09:22:45;6.00;99.90
25188;DHT22;13141;50.414;8.050;2022-12-07T09:25:11;5.60;99.90
25188;DHT22;13141;50.414;8.050;2022-12-07T09:27:36;6.00;99.90
25188;DHT22;13141;50.414;8.050;2022-12-07T09:30:03;6.10;99.90
25188;DHT22;13141;50.414;8.050;2022-12-07T09:32:29;6.20;99.90
25188;DHT22;13141;50.414;8.050;2022-12-07T09:34:54;6.30;99.90
25188;DHT22;13141;50.414;8.050;2022-12-07T09:37:20;6.20;99.90
25188;DHT22;13141;50.414;8.050;2022-12-07T09:39:46;6.20;99.90
25188;DHT22;13141;50.414;8.050;2022-12-07T09:42:29;6.30;99.90
25188;DHT22;13141;50.414;8.050;2022-12-07T09:44:57;6.30;99.90
25188;DHT22;13141;50.414;8.050;2022-12-07T09:47:24;6.60;99.90
25188;DHT22;13141;50.414;8.050;2022-12-07T09:49:49;6.80;99.90
25188;DHT22;13141;50.414;8.050;2022-12-07T09:52:27;7.10;99.90
25188;DHT22;13141;50.414;8.050;2022-12-07T09:54:54;7.20;99.90
25188;DHT22;13141;50.414;8.050;2022-12-07T09:57:29;7.10;99.90
25188;DHT22;13141;50.414;8.050;2022-12-07T10:00:03;7.10;99.90
25188;DHT22;13141;50.414;8.050;2022-12-07T10:02:58;7.00;99.90
25188;DHT22;13141;50.414;8.050;2022-12-07T10:05:38;7.00;99.90
25188;DHT22;13141;50.414;8.050;2022-12-07T10:08:09;7.00;99.90
25188;DHT22;13141;50.414;8.050;2022-12-07T10:10:36;7.10;99.90
25188;DHT22;13141;50.414;8.050;2022-12-07T10:13:09;7.20;99.90
25188;DHT22;13141;50.414;8.050;2022-12-07T10:15:53;7.30;99.90
25188;DHT22;13141;50.414;8.050;2022-12-07T10:18:30;7.50;99.90
25188;DHT22;13141;50.414;8.050;2022-12-07T10:23:36;7.50;99.90
25188;DHT22;13141;50.414;8.050;2022-12-07T10:28:58;7.30;99.90
25188;DHT22;13141;50.414;8.050;2022-12-07T10:31:24;7.30;99.90
25188;DHT22;13141;50.414;8.050;2022-12-07T10:33:58;7.30;99.90
25188;DHT22;13141;50.414;8.050;2022-12-07T10:36:34;7.30;99.90
25188;DHT22;13141;50.414;8.050;2022-12-07T10:39:22;7.50;99.90
25188;DHT22;13141;50.414;8.050;2022-12-07T10:42:02;7.70;99.90
25188;DHT22;13141;50.414;8.050;2022-12-07T10:44:33;8.00;99.90
25188;DHT22;13141;50.414;8.050;2022-12-07T10:53:23;7.80;99.90
25188;DHT22;13141;50.414;8.050;2022-12-07T10:56:19;7.60;99.90
25188;DHT22;13141;50.414;8.050;2022-12-07T11:01:37;7.50;99.90
25188;DHT22;13141;50.414;8.050;2022-12-07T11:04:33;7.50;99.90
25188;DHT22;13141;50.414;8.050;2022-12-07T11:10:12;7.10;99.90
25188;DHT22;13141;50.414;8.050;2022-12-07T11:21:47;6.90;99.90
25188;DHT22;13141;50.414;8.050;2022-12-07T11:24:19;6.90;99.90
25188;DHT22;13141;50.414;8.050;2022-12-07T11:29:53;7.00;99.90
25188;DHT22;13141;50.414;8.050;2022-12-07T11:32:45;7.10;99.90
25188;DHT22;13141;50.414;8.050;2022-12-07T11:38:19;8.30;99.90
25188;DHT22;13141;50.414;8.050;2022-12-07T11:40:53;9.00;99.90
25188;DHT22;13141;50.414;8.050;2022-12-07T11:43:27;9.60;99.90
25188;DHT22;13141;50.414;8.050;2022-12-07T11:46:10;10.00;99.90
25188;DHT22;13141;50.414;8.050;2022-12-07T11:48:46;10.20;99.90
25188;DHT22;13141;50.414;8.050;2022-12-07T11:51:13;10.00;99.90
25188;DHT22;13141;50.414;8.050;2022-12-07T11:56:15;9.30;99.90
25188;DHT22;13141;50.414;8.050;2022-12-07T12:03:52;8.40;99.90
25188;DHT22;13141;50.414;8.050;2022-12-07T12:06:19;8.10;99.90
25188;DHT22;13141;50.414;8.050;2022-12-07T12:09:09;7.70;99.90
25188;DHT22;13141;50.414;8.050;2022-12-07T12:11:51;7.60;99.90
25188;DHT22;13141;50.414;8.050;2022-12-07T12:22:38;7.40;99.90
25188;DHT22;13141;50.414;8.050;2022-12-07T12:25:21;7.30;99.90
25188;DHT22;13141;50.414;8.050;2022-12-07T12:27:49;7.30;99.90
25188;DHT22;13141;50.414;8.050;2022-12-07T12:30:34;7.30;99.90
25188;DHT22;13141;50.414;8.050;2022-12-07T12:35:35;7.30;99.90
25188;DHT22;13141;50.414;8.050;2022-12-07T12:40:52;8.50;99.90
25188;DHT22;13141;50.414;8.050;2022-12-07T12:51:44;8.50;99.90
25188;DHT22;13141;50.414;8.050;2022-12-07T12:56:52;8.10;99.90
25188;DHT22;13141;50.414;8.050;2022-12-07T12:59:28;7.90;99.90
25188;DHT22;13141;50.414;8.050;2022-12-07T13:05:01;7.70;99.90
25188;DHT22;13141;50.414;8.050;2022-12-07T13:15:40;8.10;99.90
25188;DHT22;13141;50.414;8.050;2022-12-07T13:26:26;8.80;99.90
25188;DHT22;13141;50.414;8.050;2022-12-07T13:29:18;9.20;99.90
25188;DHT22;13141;50.414;8.050;2022-12-07T13:31:50;9.50;99.90
25188;DHT22;13141;50.414;8.050;2022-12-07T13:34:40;9.50;99.90
25188;DHT22;13141;50.414;8.050;2022-12-07T13:37:15;9.20;99.90
25188;DHT22;13141;50.414;8.050;2022-12-07T13:39:49;8.90;99.90
25188;DHT22;13141;50.414;8.050;2022-12-07T13:42:35;8.30;99.90
25188;DHT22;13141;50.414;8.050;2022-12-07T13:45:22;8.40;99.90
25188;DHT22;13141;50.414;8.050;2022-12-07T13:48:32;8.10;99.90
25188;DHT22;13141;50.414;8.050;2022-12-07T13:50:59;7.90;99.90
25188;DHT22;13141;50.414;8.050;2022-12-07T13:53:25;7.80;99.90
25188;DHT22;13141;50.414;8.050;2022-12-07T13:55:53;7.90;99.90
25188;DHT22;13141;50.414;8.050;2022-12-07T13:58:19;8.30;99.90
25188;DHT22;13141;50.414;8.050;2022-12-07T14:00:45;8.60;99.90
25188;DHT22;13141;50.414;8.050;2022-12-07T14:05:41;9.20;99.90
25188;DHT22;13141;50.414;8.050;2022-12-07T14:13:03;9.40;99.90
25188;DHT22;13141;50.414;8.050;2022-12-07T14:15:44;9.40;99.90
25188;DHT22;13141;50.414;8.050;2022-12-07T14:18:43;9.30;99.90
25188;DHT22;13141;50.414;8.050;2022-12-07T14:23:35;9.00;99.90
25188;DHT22;13141;50.414;8.050;2022-12-07T14:26:15;8.90;99.90
25188;DHT22;13141;50.414;8.050;2022-12-07T14:28:42;8.80;99.90
25188;DHT22;13141;50.414;8.050;2022-12-07T14:31:12;8.60;99.90
25188;DHT22;13141;50.414;8.050;2022-12-07T14:33:38;8.40;99.90
25188;DHT22;13141;50.414;8.050;2022-12-07T14:36:04;8.00;99.90
25188;DHT22;13141;50.414;8.050;2022-12-07T14:38:30;8.30;99.90
25188;DHT22;13141;50.414;8.050;2022-12-07T14:40:56;8.30;99.90
25188;DHT22;13141;50.414;8.050;2022-12-07T14:43:45;8.20;99.90
25188;DHT22;13141;50.414;8.050;2022-12-07T14:46:10;8.10;99.90
25188;DHT22;13141;50.414;8.050;2022-12-07T14:48:36;7.90;99.90
25188;DHT22;13141;50.414;8.050;2022-12-07T14:51:02;7.90;99.90
25188;DHT22;13141;50.414;8.050;2022-12-07T14:53:37;7.80;99.90
25188;DHT22;13141;50.414;8.050;2022-12-07T14:56:05;7.70;99.90
25188;DHT22;13141;50.414;8.050;2022-12-07T14:58:31;7.50;99.90
25188;DHT22;13141;50.414;8.050;2022-12-07T15:00:57;7.50;99.90
25188;DHT22;13141;50.414;8.050;2022-12-07T15:03:23;7.30;99.90
25188;DHT22;13141;50.414;8.050;2022-12-07T15:05:48;7.20;99.90
25188;DHT22;13141;50.414;8.050;2022-12-07T15:08:14;7.10;99.90
25188;DHT22;13141;50.414;8.050;2022-12-07T15:10:40;7.10;99.90
25188;DHT22;13141;50.414;8.050;2022-12-07T15:13:06;7.00;99.90
25188;DHT22;13141;50.414;8.050;2022-12-07T15:15:52;7.00;99.90
25188;DHT22;13141;50.414;8.050;2022-12-07T15:18:18;6.90;99.90
25188;DHT22;13141;50.414;8.050;2022-12-07T15:20:45;6.80;99.90
25188;DHT22;13141;50.414;8.050;2022-12-07T15:23:11;6.70;99.90
25188;DHT22;13141;50.414;8.050;2022-12-07T15:25:40;6.60;99.90
25188;DHT22;13141;50.414;8.050;2022-12-07T15:28:05;6.60;99.90
25188;DHT22;13141;50.414;8.050;2022-12-07T15:30:31;6.60;99.90
25188;DHT22;13141;50.414;8.050;2022-12-07T15:32:56;6.60;99.90
25188;DHT22;13141;50.414;8.050;2022-12-07T15:35:22;6.50;99.90
25188;DHT22;13141;50.414;8.050;2022-12-07T15:37:47;6.50;99.90
25188;DHT22;13141;50.414;8.050;2022-12-07T15:40:13;6.50;99.90
25188;DHT22;13141;50.414;8.050;2022-12-07T15:42:39;6.30;99.90
25188;DHT22;13141;50.414;8.050;2022-12-07T15:45:06;6.30;99.90
25188;DHT22;13141;50.414;8.050;2022-12-07T15:47:38;6.30;99.90
25188;DHT22;13141;50.414;8.050;2022-12-07T15:50:06;6.30;99.90
25188;DHT22;13141;50.414;8.050;2022-12-07T15:52:32;6.30;99.90
25188;DHT22;13141;50.414;8.050;2022-12-07T15:54:58;6.30;99.90
25188;DHT22;13141;50.414;8.050;2022-12-07T15:57:26;6.20;99.90
25188;DHT22;13141;50.414;8.050;2022-12-07T15:59:51;6.10;99.90
25188;DHT22;13141;50.414;8.050;2022-12-07T16:02:17;6.10;99.90
25188;DHT22;13141;50.414;8.050;2022-12-07T16:04:43;6.10;99.90
25188;DHT22;13141;50.414;8.050;2022-12-07T16:07:08;6.20;99.90
25188;DHT22;13141;50.414;8.050;2022-12-07T16:09:35;5.90;99.90
25188;DHT22;13141;50.414;8.050;2022-12-07T16:12:01;5.70;99.90
25188;DHT22;13141;50.414;8.050;2022-12-07T16:14:26;5.60;99.90
25188;DHT22;13141;50.414;8.050;2022-12-07T16:16:52;5.60;99.90
25188;DHT22;13141;50.414;8.050;2022-12-07T16:19:17;5.60;99.90
25188;DHT22;13141;50.414;8.050;2022-12-07T16:21:43;5.60;99.90
25188;DHT22;13141;50.414;8.050;2022-12-07T16:24:08;5.60;99.90
25188;DHT22;13141;50.414;8.050;2022-12-07T16:26:35;5.60;99.90
25188;DHT22;13141;50.414;8.050;2022-12-07T16:29:01;5.50;99.90
25188;DHT22;13141;50.414;8.050;2022-12-07T16:31:27;5.50;99.90
25188;DHT22;13141;50.414;8.050;2022-12-07T16:33:55;5.40;99.90
25188;DHT22;13141;50.414;8.050;2022-12-07T16:36:21;5.40;99.90
25188;DHT22;13141;50.414;8.050;2022-12-07T16:38:47;5.50;99.90
25188;DHT22;13141;50.414;8.050;2022-12-07T16:41:13;5.60;99.90
25188;DHT22;13141;50.414;8.050;2022-12-07T16:43:39;5.70;99.90
25188;DHT22;13141;50.414;8.050;2022-12-07T16:46:05;5.80;99.90
25188;DHT22;13141;50.414;8.050;2022-12-07T16:48:30;5.80;99.90
25188;DHT22;13141;50.414;8.050;2022-12-07T16:50:56;5.80;99.90
25188;DHT22;13141;50.414;8.050;2022-12-07T16:53:23;5.80;99.90
25188;DHT22;13141;50.414;8.050;2022-12-07T16:55:50;5.70;99.90
25188;DHT22;13141;50.414;8.050;2022-12-07T16:58:16;5.60;99.90
25188;DHT22;13141;50.414;8.050;2022-12-07T17:00:43;5.50;99.90
25188;DHT22;13141;50.414;8.050;2022-12-07T17:03:09;5.60;99.90
25188;DHT22;13141;50.414;8.050;2022-12-07T17:05:41;5.60;99.90
25188;DHT22;13141;50.414;8.050;2022-12-07T17:08:07;5.60;99.90
25188;DHT22;13141;50.414;8.050;2022-12-07T17:10:34;5.60;99.90
25188;DHT22;13141;50.414;8.050;2022-12-07T17:13:01;5.40;99.90
25188;DHT22;13141;50.414;8.050;2022-12-07T17:15:26;5.30;99.90
25188;DHT22;13141;50.414;8.050;2022-12-07T17:17:56;5.40;99.90
25188;DHT22;13141;50.414;8.050;2022-12-07T17:20:24;5.30;99.90
25188;DHT22;13141;50.414;8.050;2022-12-07T17:22:50;5.20;99.90
25188;DHT22;13141;50.414;8.050;2022-12-07T17:25:16;5.20;99.90
25188;DHT22;13141;50.414;8.050;2022-12-07T17:27:43;5.10;99.90
25188;DHT22;13141;50.414;8.050;2022-12-07T17:30:09;5.00;99.90
25188;DHT22;13141;50.414;8.050;2022-12-07T17:32:35;4.90;99.90
25188;DHT22;13141;50.414;8.050;2022-12-07T17:35:01;4.90;99.90
25188;DHT22;13141;50.414;8.050;2022-12-07T17:37:27;4.80;99.90
25188;DHT22;13141;50.414;8.050;2022-12-07T17:39:53;4.90;99.90
25188;DHT22;13141;50.414;8.050;2022-12-07T17:42:23;4.80;99.90
25188;DHT22;13141;50.414;8.050;2022-12-07T17:45:01;4.80;99.90
25188;DHT22;13141;50.414;8.050;2022-12-07T17:47:27;4.90;99.90
25188;DHT22;13141;50.414;8.050;2022-12-07T17:49:53;4.90;99.90
25188;DHT22;13141;50.414;8.050;2022-12-07T17:52:18;4.90;99.90
25188;DHT22;13141;50.414;8.050;2022-12-07T17:55:02;4.80;99.90
25188;DHT22;13141;50.414;8.050;2022-12-07T17:57:28;4.80;99.90